sensor_id;sensor_type;location;lat;lon;timestamp;temperature;humidity
29353;DHT22;16344;50.364;8.944;2023-07-31T00:00:32;19.20;1.00
29353;DHT22;16344;50.364;8.944;2023-07-31T00:02:58;19.20;1.00
29353;DHT22;16344;50.364;8.944;2023-07-31T00:05:23;19.10;1.00
29353;DHT22;16344;50.364;8.944;2023-07-31T00:07:49;19.10;1.00
29353;DHT22;16344;50.364;8.944;2023-07-31T00:10:14;19.10;1.00
29353;DHT22;16344;50.364;8.944;2023-07-31T00:12:41;19.10;1.00
29353;DHT22;16344;50.364;8.944;2023-07-31T00:15:07;19.20;1.00
29353;DHT22;16344;50.364;8.944;2023-07-31T00:17:33;19.10;1.00
29353;DHT22;16344;50.364;8.944;2023-07-31T00:19:59;19.10;1.00
29353;DHT22;16344;50.364;8.944;2023-07-31T00:22:24;19.10;1.00
29353;DHT22;16344;50.364;8.944;2023-07-31T00:24:50;19.10;1.00
29353;DHT22;16344;50.364;8.944;2023-07-31T00:27:15;19.20;1.00
29353;DHT22;16344;50.364;8.944;2023-07-31T00:29:41;19.20;1.00
29353;DHT22;16344;50.364;8.944;2023-07-31T00:32:07;19.20;1.00
29353;DHT22;16344;50.364;8.944;2023-07-31T00:34:33;19.30;1.00
29353;DHT22;16344;50.364;8.944;2023-07-31T00:36:58;19.30;1.00
29353;DHT22;16344;50.364;8.944;2023-07-31T00:39:24;19.30;1.00
29353;DHT22;16344;50.364;8.944;2023-07-31T00:41:49;19.30;1.00
29353;DHT22;16344;50.364;8.944;2023-07-31T00:44:15;19.30;1.00
29353;DHT22;16344;50.364;8.944;2023-07-31T00:46:40;19.20;1.00
29353;DHT22;16344;50.364;8.944;2023-07-31T00:49:06;19.20;1.00
29353;DHT22;16344;50.364;8.944;2023-07-31T00:51:33;19.10;1.00
29353;DHT22;16344;50.364;8.944;2023-07-31T00:53:58;19.10;1.00
29353;DHT22;16344;50.364;8.944;2023-07-31T00:56:25;19.10;1.00
29353;DHT22;16344;50.364;8.944;2023-07-31T00:58:51;19.10;1.00
29353;DHT22;16344;50.364;8.944;2023-07-31T01:01:17;19.00;1.00
29353;DHT22;16344;50.364;8.944;2023-07-31T01:03:42;19.10;1.00
29353;DHT22;16344;50.364;8.944;2023-07-31T01:06:15;19.00;1.00
29353;DHT22;16344;50.364;8.944;2023-07-31T01:09:04;19.00;10.20
29353;DHT22;16344;50.364;8.944;2023-07-31T01:11:35;19.00;8.80
29353;DHT22;16344;50.364;8.944;2023-07-31T01:14:03;18.90;37.20
29353;DHT22;16344;50.364;8.944;2023-07-31T01:16:29;19.00;50.00
29353;DHT22;16344;50.364;8.944;2023-07-31T01:18:54;19.00;57.10
29353;DHT22;16344;50.364;8.944;2023-07-31T01:24:28;19.00;99.90
29353;DHT22;16344;50.364;8.944;2023-07-31T01:27:04;19.00;99.90
29353;DHT22;16344;50.364;8.944;2023-07-31T01:32:20;18.90;99.90
29353;DHT22;16344;50.364;8.944;2023-07-31T01:34:47;18.80;99.90
29353;DHT22;16344;50.364;8.944;2023-07-31T01:37:14;18.80;99.90
29353;DHT22;16344;50.364;8.944;2023-07-31T01:39:39;18.80;99.90
29353;DHT22;16344;50.364;8.944;2023-07-31T01:42:05;18.80;99.90
29353;DHT22;16344;50.364;8.944;2023-07-31T01:44:30;18.90;99.90
29353;DHT22;16344;50.364;8.944;2023-07-31T01:46:56;18.90;99.90
29353;DHT22;16344;50.364;8.944;2023-07-31T01:49:21;18.90;99.90
29353;DHT22;16344;50.364;8.944;2023-07-31T01:51:47;18.90;99.90
29353;DHT22;16344;50.364;8.944;2023-07-31T01:54:12;18.80;99.90
29353;DHT22;16344;50.364;8.944;2023-07-31T01:56:38;18.70;99.90
29353;DHT22;16344;50.364;8.944;2023-07-31T01:59:03;18.70;99.90
29353;DHT22;16344;50.364;8.944;2023-07-31T02:01:29;18.60;99.90
29353;DHT22;16344;50.364;8.944;2023-07-31T02:03:54;18.50;99.90
29353;DHT22;16344;50.364;8.944;2023-07-31T02:06:20;18.50;99.90
29353;DHT22;16344;50.364;8.944;2023-07-31T02:08:45;18.50;99.90
29353;DHT22;16344;50.364;8.944;2023-07-31T02:11:11;18.40;99.90
29353;DHT22;16344;50.364;8.944;2023-07-31T02:13:36;18.50;99.90
29353;DHT22;16344;50.364;8.944;2023-07-31T02:16:02;18.40;99.90
29353;DHT22;16344;50.364;8.944;2023-07-31T02:18:27;18.50;99.90
29353;DHT22;16344;50.364;8.944;2023-07-31T02:20:53;18.50;99.90
29353;DHT22;16344;50.364;8.944;2023-07-31T02:23:19;18.50;99.90
29353;DHT22;16344;50.364;8.944;2023-07-31T02:25:45;18.60;99.90
29353;DHT22;16344;50.364;8.944;2023-07-31T02:28:11;18.60;99.90
29353;DHT22;16344;50.364;8.944;2023-07-31T02:30:36;18.70;99.90
29353;DHT22;16344;50.364;8.944;2023-07-31T02:33:02;18.60;99.90
29353;DHT22;16344;50.364;8.944;2023-07-31T02:35:28;18.70;99.90
29353;DHT22;16344;50.364;8.944;2023-07-31T02:37:53;18.70;99.90
29353;DHT22;16344;50.364;8.944;2023-07-31T02:40:19;18.70;99.90
29353;DHT22;16344;50.364;8.944;2023-07-31T02:42:44;18.60;99.90
29353;DHT22;16344;50.364;8.944;2023-07-31T02:45:10;18.70;99.90
29353;DHT22;16344;50.364;8.944;2023-07-31T02:47:35;18.60;99.90
29353;DHT22;16344;50.364;8.944;2023-07-31T02:50:04;18.60;99.90
29353;DHT22;16344;50.364;8.944;2023-07-31T02:52:30;18.60;99.90
29353;DHT22;16344;50.364;8.944;2023-07-31T02:54:57;18.50;99.90
29353;DHT22;16344;50.364;8.944;2023-07-31T02:57:22;18.60;99.90
29353;DHT22;16344;50.364;8.944;2023-07-31T02:59:48;18.50;99.90
29353;DHT22;16344;50.364;8.944;2023-07-31T03:02:13;18.50;99.90
29353;DHT22;16344;50.364;8.944;2023-07-31T03:04:39;18.40;99.90
29353;DHT22;16344;50.364;8.944;2023-07-31T03:07:05;18.40;99.90
29353;DHT22;16344;50.364;8.944;2023-07-31T03:09:31;18.40;99.90
29353;DHT22;16344;50.364;8.944;2023-07-31T03:11:56;18.30;99.90
29353;DHT22;16344;50.364;8.944;2023-07-31T03:14:22;18.40;99.90
29353;DHT22;16344;50.364;8.944;2023-07-31T03:16:48;18.30;99.90
29353;DHT22;16344;50.364;8.944;2023-07-31T03:19:13;18.30;99.90
29353;DHT22;16344;50.364;8.944;2023-07-31T03:21:39;18.30;99.90
29353;DHT22;16344;50.364;8.944;2023-07-31T03:24:04;18.40;99.90
29353;DHT22;16344;50.364;8.944;2023-07-31T03:26:32;18.40;99.90
29353;DHT22;16344;50.364;8.944;2023-07-31T03:28:57;18.30;99.90
29353;DHT22;16344;50.364;8.944;2023-07-31T03:31:23;18.40;99.90
29353;DHT22;16344;50.364;8.944;2023-07-31T03:33:48;18.30;99.90
29353;DHT22;16344;50.364;8.944;2023-07-31T03:36:14;18.30;99.90
29353;DHT22;16344;50.364;8.944;2023-07-31T03:38:39;18.20;99.90
29353;DHT22;16344;50.364;8.944;2023-07-31T03:41:05;18.20;99.90
29353;DHT22;16344;50.364;8.944;2023-07-31T03:43:32;18.20;99.90
29353;DHT22;16344;50.364;8.944;2023-07-31T03:45:59;18.20;99.90
29353;DHT22;16344;50.364;8.944;2023-07-31T03:48:25;18.20;99.90
29353;DHT22;16344;50.364;8.944;2023-07-31T03:50:50;18.20;99.90
29353;DHT22;16344;50.364;8.944;2023-07-31T03:53:16;18.20;99.90
29353;DHT22;16344;50.364;8.944;2023-07-31T03:55:41;18.30;99.90
29353;DHT22;16344;50.364;8.944;2023-07-31T03:58:07;18.20;99.90
29353;DHT22;16344;50.364;8.944;2023-07-31T04:00:32;18.20;99.90
29353;DHT22;16344;50.364;8.944;2023-07-31T04:02:58;18.30;99.90
29353;DHT22;16344;50.364;8.944;2023-07-31T04:05:24;18.30;99.90
29353;DHT22;16344;50.364;8.944;2023-07-31T04:07:49;18.30;99.90
29353;DHT22;16344;50.364;8.944;2023-07-31T04:10:15;18.30;99.90
29353;DHT22;16344;50.364;8.944;2023-07-31T04:12:40;18.40;99.90
29353;DHT22;16344;50.364;8.944;2023-07-31T04:15:06;18.40;99.90
29353;DHT22;16344;50.364;8.944;2023-07-31T04:17:32;18.50;99.90
29353;DHT22;16344;50.364;8.944;2023-07-31T04:19:58;18.50;99.90
29353;DHT22;16344;50.364;8.944;2023-07-31T04:22:23;18.50;99.90
29353;DHT22;16344;50.364;8.944;2023-07-31T04:24:48;18.50;99.90
29353;DHT22;16344;50.364;8.944;2023-07-31T04:27:14;18.60;99.90
29353;DHT22;16344;50.364;8.944;2023-07-31T04:29:40;18.50;99.90
29353;DHT22;16344;50.364;8.944;2023-07-31T04:32:08;18.40;99.90
29353;DHT22;16344;50.364;8.944;2023-07-31T04:34:33;18.40;99.90
29353;DHT22;16344;50.364;8.944;2023-07-31T04:36:59;18.30;99.90
29353;DHT22;16344;50.364;8.944;2023-07-31T04:39:24;18.40;99.90
29353;DHT22;16344;50.364;8.944;2023-07-31T04:41:50;18.40;99.90
29353;DHT22;16344;50.364;8.944;2023-07-31T04:44:15;18.30;99.90
29353;DHT22;16344;50.364;8.944;2023-07-31T04:46:41;18.30;99.90
29353;DHT22;16344;50.364;8.944;2023-07-31T04:49:06;18.30;99.90
29353;DHT22;16344;50.364;8.944;2023-07-31T04:51:32;18.30;99.90
29353;DHT22;16344;50.364;8.944;2023-07-31T04:53:57;18.30;99.90
29353;DHT22;16344;50.364;8.944;2023-07-31T04:56:23;18.20;1.00
29353;DHT22;16344;50.364;8.944;2023-07-31T04:58:48;18.30;99.90
29353;DHT22;16344;50.364;8.944;2023-07-31T05:01:14;18.30;99.90
29353;DHT22;16344;50.364;8.944;2023-07-31T05:03:39;18.20;99.90
29353;DHT22;16344;50.364;8.944;2023-07-31T05:06:05;18.30;99.90
29353;DHT22;16344;50.364;8.944;2023-07-31T05:08:30;18.30;99.90
29353;DHT22;16344;50.364;8.944;2023-07-31T05:10:56;18.30;99.90
29353;DHT22;16344;50.364;8.944;2023-07-31T05:13:21;18.40;99.90
29353;DHT22;16344;50.364;8.944;2023-07-31T05:15:47;18.40;99.90
29353;DHT22;16344;50.364;8.944;2023-07-31T05:18:14;18.40;99.90
29353;DHT22;16344;50.364;8.944;2023-07-31T05:20:40;18.40;99.90
29353;DHT22;16344;50.364;8.944;2023-07-31T05:23:06;18.40;99.90
29353;DHT22;16344;50.364;8.944;2023-07-31T05:25:31;18.40;99.90
29353;DHT22;16344;50.364;8.944;2023-07-31T05:27:57;18.40;99.90
29353;DHT22;16344;50.364;8.944;2023-07-31T05:30:22;18.40;99.90
29353;DHT22;16344;50.364;8.944;2023-07-31T05:32:48;18.40;99.90
29353;DHT22;16344;50.364;8.944;2023-07-31T05:35:13;18.40;99.90
29353;DHT22;16344;50.364;8.944;2023-07-31T05:37:39;18.30;99.90
29353;DHT22;16344;50.364;8.944;2023-07-31T05:40:05;18.40;99.90
29353;DHT22;16344;50.364;8.944;2023-07-31T05:42:31;18.50;99.90
29353;DHT22;16344;50.364;8.944;2023-07-31T05:44:56;18.40;99.90
29353;DHT22;16344;50.364;8.944;2023-07-31T05:47:22;18.40;99.90
29353;DHT22;16344;50.364;8.944;2023-07-31T05:49:48;18.40;99.90
29353;DHT22;16344;50.364;8.944;2023-07-31T05:52:14;18.50;99.90
29353;DHT22;16344;50.364;8.944;2023-07-31T05:54:41;18.50;99.90
29353;DHT22;16344;50.364;8.944;2023-07-31T05:57:07;18.40;99.90
29353;DHT22;16344;50.364;8.944;2023-07-31T05:59:33;18.40;99.90
29353;DHT22;16344;50.364;8.944;2023-07-31T06:01:58;18.40;99.90
29353;DHT22;16344;50.364;8.944;2023-07-31T06:04:24;18.40;99.90
29353;DHT22;16344;50.364;8.944;2023-07-31T06:06:51;18.50;99.90
29353;DHT22;16344;50.364;8.944;2023-07-31T06:09:16;18.40;99.90
29353;DHT22;16344;50.364;8.944;2023-07-31T06:11:42;18.40;99.90
29353;DHT22;16344;50.364;8.944;2023-07-31T06:14:07;18.40;99.90
29353;DHT22;16344;50.364;8.944;2023-07-31T06:16:33;18.50;99.90
29353;DHT22;16344;50.364;8.944;2023-07-31T06:18:58;18.50;99.90
29353;DHT22;16344;50.364;8.944;2023-07-31T06:21:24;18.50;99.90
29353;DHT22;16344;50.364;8.944;2023-07-31T06:23:49;18.50;99.90
29353;DHT22;16344;50.364;8.944;2023-07-31T06:26:15;18.50;99.90
29353;DHT22;16344;50.364;8.944;2023-07-31T06:28:41;18.50;99.90
29353;DHT22;16344;50.364;8.944;2023-07-31T06:31:07;18.60;99.90
29353;DHT22;16344;50.364;8.944;2023-07-31T06:33:32;18.60;99.90
29353;DHT22;16344;50.364;8.944;2023-07-31T06:35:58;18.60;99.90
29353;DHT22;16344;50.364;8.944;2023-07-31T06:38:25;18.60;99.90
29353;DHT22;16344;50.364;8.944;2023-07-31T06:40:51;18.60;99.90
29353;DHT22;16344;50.364;8.944;2023-07-31T06:43:17;18.70;99.90
29353;DHT22;16344;50.364;8.944;2023-07-31T06:45:42;18.80;99.90
29353;DHT22;16344;50.364;8.944;2023-07-31T06:48:08;18.70;99.90
29353;DHT22;16344;50.364;8.944;2023-07-31T06:50:34;18.80;99.90
29353;DHT22;16344;50.364;8.944;2023-07-31T06:52:59;18.80;99.90
29353;DHT22;16344;50.364;8.944;2023-07-31T06:55:26;18.80;99.90
29353;DHT22;16344;50.364;8.944;2023-07-31T06:57:53;18.80;99.90
29353;DHT22;16344;50.364;8.944;2023-07-31T07:00:20;18.90;99.90
29353;DHT22;16344;50.364;8.944;2023-07-31T07:02:46;18.90;99.90
29353;DHT22;16344;50.364;8.944;2023-07-31T07:05:16;18.90;99.90
29353;DHT22;16344;50.364;8.944;2023-07-31T07:07:42;18.90;99.90
29353;DHT22;16344;50.364;8.944;2023-07-31T07:10:08;18.90;99.90
29353;DHT22;16344;50.364;8.944;2023-07-31T07:12:34;18.90;99.90
29353;DHT22;16344;50.364;8.944;2023-07-31T07:15:00;18.90;99.90
29353;DHT22;16344;50.364;8.944;2023-07-31T07:17:27;19.00;99.90
29353;DHT22;16344;50.364;8.944;2023-07-31T07:19:53;18.90;99.90
29353;DHT22;16344;50.364;8.944;2023-07-31T07:22:18;19.00;99.90
29353;DHT22;16344;50.364;8.944;2023-07-31T07:24:44;19.00;99.90
29353;DHT22;16344;50.364;8.944;2023-07-31T07:27:10;19.00;99.90
29353;DHT22;16344;50.364;8.944;2023-07-31T07:29:38;19.10;99.90
29353;DHT22;16344;50.364;8.944;2023-07-31T07:32:04;19.30;99.90
29353;DHT22;16344;50.364;8.944;2023-07-31T07:34:30;19.60;99.90
29353;DHT22;16344;50.364;8.944;2023-07-31T07:36:55;19.70;99.90
29353;DHT22;16344;50.364;8.944;2023-07-31T07:39:21;19.90;99.90
29353;DHT22;16344;50.364;8.944;2023-07-31T07:41:47;20.10;99.90
29353;DHT22;16344;50.364;8.944;2023-07-31T07:44:13;20.30;86.40
29353;DHT22;16344;50.364;8.944;2023-07-31T07:46:39;20.30;80.50
29353;DHT22;16344;50.364;8.944;2023-07-31T07:49:05;20.30;31.40
29353;DHT22;16344;50.364;8.944;2023-07-31T07:51:31;20.20;32.50
29353;DHT22;16344;50.364;8.944;2023-07-31T07:53:57;20.20;21.70
29353;DHT22;16344;50.364;8.944;2023-07-31T07:56:23;20.00;33.00
29353;DHT22;16344;50.364;8.944;2023-07-31T07:58:49;20.00;41.30
29353;DHT22;16344;50.364;8.944;2023-07-31T08:01:15;20.00;47.30
29353;DHT22;16344;50.364;8.944;2023-07-31T08:03:41;20.00;98.30
29353;DHT22;16344;50.364;8.944;2023-07-31T08:06:06;19.90;99.90
29353;DHT22;16344;50.364;8.944;2023-07-31T08:08:35;19.90;99.90
29353;DHT22;16344;50.364;8.944;2023-07-31T08:11:00;19.80;99.90
29353;DHT22;16344;50.364;8.944;2023-07-31T08:13:26;19.80;99.90
29353;DHT22;16344;50.364;8.944;2023-07-31T08:15:51;19.80;98.60
29353;DHT22;16344;50.364;8.944;2023-07-31T08:18:17;19.80;91.30
29353;DHT22;16344;50.364;8.944;2023-07-31T08:20:42;19.80;93.10
29353;DHT22;16344;50.364;8.944;2023-07-31T08:23:09;19.90;92.20
29353;DHT22;16344;50.364;8.944;2023-07-31T08:25:35;19.90;77.20
29353;DHT22;16344;50.364;8.944;2023-07-31T08:28:02;20.00;91.30
29353;DHT22;16344;50.364;8.944;2023-07-31T08:30:27;20.10;99.90
29353;DHT22;16344;50.364;8.944;2023-07-31T08:32:53;20.30;56.90
29353;DHT22;16344;50.364;8.944;2023-07-31T08:35:18;20.40;33.40
29353;DHT22;16344;50.364;8.944;2023-07-31T08:37:44;20.50;17.90
29353;DHT22;16344;50.364;8.944;2023-07-31T08:40:09;20.50;21.10
29353;DHT22;16344;50.364;8.944;2023-07-31T08:42:46;20.50;16.80
29353;DHT22;16344;50.364;8.944;2023-07-31T08:45:17;20.60;25.50
29353;DHT22;16344;50.364;8.944;2023-07-31T08:47:45;20.60;34.60
29353;DHT22;16344;50.364;8.944;2023-07-31T08:50:13;20.80;43.40
29353;DHT22;16344;50.364;8.944;2023-07-31T08:52:39;21.10;1.00
29353;DHT22;16344;50.364;8.944;2023-07-31T08:55:06;21.20;1.00
29353;DHT22;16344;50.364;8.944;2023-07-31T08:57:34;21.40;1.00
29353;DHT22;16344;50.364;8.944;2023-07-31T09:00:00;21.90;1.00
29353;DHT22;16344;50.364;8.944;2023-07-31T09:02:31;22.60;1.00
29353;DHT22;16344;50.364;8.944;2023-07-31T09:05:00;22.80;1.00
29353;DHT22;16344;50.364;8.944;2023-07-31T09:07:26;22.80;1.00
29353;DHT22;16344;50.364;8.944;2023-07-31T09:09:52;22.90;1.00
29353;DHT22;16344;50.364;8.944;2023-07-31T09:12:17;22.80;1.00
29353;DHT22;16344;50.364;8.944;2023-07-31T09:14:44;22.60;1.00
29353;DHT22;16344;50.364;8.944;2023-07-31T09:17:10;22.20;1.00
29353;DHT22;16344;50.364;8.944;2023-07-31T09:19:36;22.00;1.00
29353;DHT22;16344;50.364;8.944;2023-07-31T09:22:06;21.70;1.00
29353;DHT22;16344;50.364;8.944;2023-07-31T09:24:33;21.50;1.00
29353;DHT22;16344;50.364;8.944;2023-07-31T09:26:59;21.30;1.00
29353;DHT22;16344;50.364;8.944;2023-07-31T09:29:26;21.10;1.00
29353;DHT22;16344;50.364;8.944;2023-07-31T09:31:53;20.90;1.00
29353;DHT22;16344;50.364;8.944;2023-07-31T09:34:19;20.90;2.50
29353;DHT22;16344;50.364;8.944;2023-07-31T09:36:49;20.90;99.90
29353;DHT22;16344;50.364;8.944;2023-07-31T09:39:17;20.80;99.90
29353;DHT22;16344;50.364;8.944;2023-07-31T09:41:45;20.60;99.90
29353;DHT22;16344;50.364;8.944;2023-07-31T09:44:11;20.40;99.90
29353;DHT22;16344;50.364;8.944;2023-07-31T09:46:37;20.30;99.90
29353;DHT22;16344;50.364;8.944;2023-07-31T09:49:10;20.00;1.00
29353;DHT22;16344;50.364;8.944;2023-07-31T09:51:39;19.90;1.00
29353;DHT22;16344;50.364;8.944;2023-07-31T09:54:12;19.90;1.00
29353;DHT22;16344;50.364;8.944;2023-07-31T09:56:42;19.70;1.00
29353;DHT22;16344;50.364;8.944;2023-07-31T09:59:10;19.80;1.00
29353;DHT22;16344;50.364;8.944;2023-07-31T10:01:36;19.80;1.00
29353;DHT22;16344;50.364;8.944;2023-07-31T10:04:02;19.80;1.00
29353;DHT22;16344;50.364;8.944;2023-07-31T10:06:29;19.70;1.00
29353;DHT22;16344;50.364;8.944;2023-07-31T10:08:55;19.60;1.00
29353;DHT22;16344;50.364;8.944;2023-07-31T10:11:22;19.60;1.00
29353;DHT22;16344;50.364;8.944;2023-07-31T10:13:50;19.60;1.00
29353;DHT22;16344;50.364;8.944;2023-07-31T10:16:16;19.50;1.00
29353;DHT22;16344;50.364;8.944;2023-07-31T10:18:43;19.50;1.00
29353;DHT22;16344;50.364;8.944;2023-07-31T10:21:09;19.70;1.00
29353;DHT22;16344;50.364;8.944;2023-07-31T10:23:36;19.90;1.00
29353;DHT22;16344;50.364;8.944;2023-07-31T10:26:02;20.10;1.00
29353;DHT22;16344;50.364;8.944;2023-07-31T10:28:29;20.20;1.00
29353;DHT22;16344;50.364;8.944;2023-07-31T10:30:55;20.30;1.00
29353;DHT22;16344;50.364;8.944;2023-07-31T10:33:21;20.50;1.00
29353;DHT22;16344;50.364;8.944;2023-07-31T10:35:47;20.60;1.00
29353;DHT22;16344;50.364;8.944;2023-07-31T10:38:13;20.40;1.00
29353;DHT22;16344;50.364;8.944;2023-07-31T10:40:39;20.30;1.00
29353;DHT22;16344;50.364;8.944;2023-07-31T10:43:05;20.40;1.00
29353;DHT22;16344;50.364;8.944;2023-07-31T10:48:01;20.30;1.00
29353;DHT22;16344;50.364;8.944;2023-07-31T10:50:28;20.20;1.00
29353;DHT22;16344;50.364;8.944;2023-07-31T10:52:55;20.20;1.00
29353;DHT22;16344;50.364;8.944;2023-07-31T10:57:49;20.20;1.00
29353;DHT22;16344;50.364;8.944;2023-07-31T11:00:28;20.40;1.00
29353;DHT22;16344;50.364;8.944;2023-07-31T11:03:04;20.50;1.00
29353;DHT22;16344;50.364;8.944;2023-07-31T11:08:30;20.70;1.00
29353;DHT22;16344;50.364;8.944;2023-07-31T11:13:32;20.70;99.90
29353;DHT22;16344;50.364;8.944;2023-07-31T11:15:58;20.60;99.90
29353;DHT22;16344;50.364;8.944;2023-07-31T11:18:26;20.50;99.90
29353;DHT22;16344;50.364;8.944;2023-07-31T11:20:52;20.50;99.90
29353;DHT22;16344;50.364;8.944;2023-07-31T11:23:18;20.40;99.90
29353;DHT22;16344;50.364;8.944;2023-07-31T11:25:44;20.50;99.90
29353;DHT22;16344;50.364;8.944;2023-07-31T11:28:12;20.50;99.90
29353;DHT22;16344;50.364;8.944;2023-07-31T11:30:38;20.60;99.90
29353;DHT22;16344;50.364;8.944;2023-07-31T11:33:06;20.60;99.90
29353;DHT22;16344;50.364;8.944;2023-07-31T11:35:34;20.60;99.90
29353;DHT22;16344;50.364;8.944;2023-07-31T11:38:00;20.70;99.90
29353;DHT22;16344;50.364;8.944;2023-07-31T11:40:26;20.80;99.90
29353;DHT22;16344;50.364;8.944;2023-07-31T11:42:58;21.00;99.90
29353;DHT22;16344;50.364;8.944;2023-07-31T11:45:27;21.20;99.90
29353;DHT22;16344;50.364;8.944;2023-07-31T11:47:54;21.40;99.90
29353;DHT22;16344;50.364;8.944;2023-07-31T11:50:20;21.60;99.90
29353;DHT22;16344;50.364;8.944;2023-07-31T11:52:48;21.80;99.90
29353;DHT22;16344;50.364;8.944;2023-07-31T11:55:14;21.90;99.90
29353;DHT22;16344;50.364;8.944;2023-07-31T11:57:42;21.90;89.20
29353;DHT22;16344;50.364;8.944;2023-07-31T12:00:09;22.00;59.00
29353;DHT22;16344;50.364;8.944;2023-07-31T12:02:39;22.10;24.60
29353;DHT22;16344;50.364;8.944;2023-07-31T12:05:06;22.00;1.00
29353;DHT22;16344;50.364;8.944;2023-07-31T12:10:11;22.00;43.40
29353;DHT22;16344;50.364;8.944;2023-07-31T12:13:01;22.00;1.00
29353;DHT22;16344;50.364;8.944;2023-07-31T12:15:34;21.90;1.00
29353;DHT22;16344;50.364;8.944;2023-07-31T12:18:00;21.70;1.00
29353;DHT22;16344;50.364;8.944;2023-07-31T12:20:26;21.70;1.00
29353;DHT22;16344;50.364;8.944;2023-07-31T12:22:51;21.60;1.00
29353;DHT22;16344;50.364;8.944;2023-07-31T12:25:17;21.60;1.00
29353;DHT22;16344;50.364;8.944;2023-07-31T12:27:46;21.70;1.00
29353;DHT22;16344;50.364;8.944;2023-07-31T12:30:31;21.80;1.00
29353;DHT22;16344;50.364;8.944;2023-07-31T12:32:57;21.90;1.00
29353;DHT22;16344;50.364;8.944;2023-07-31T12:35:23;21.90;1.00
29353;DHT22;16344;50.364;8.944;2023-07-31T12:37:48;21.90;1.00
29353;DHT22;16344;50.364;8.944;2023-07-31T12:40:14;21.90;1.00
29353;DHT22;16344;50.364;8.944;2023-07-31T12:42:41;21.90;1.00
29353;DHT22;16344;50.364;8.944;2023-07-31T12:45:07;21.90;1.00
29353;DHT22;16344;50.364;8.944;2023-07-31T12:47:32;22.00;1.00
29353;DHT22;16344;50.364;8.944;2023-07-31T12:49:58;22.10;1.00
29353;DHT22;16344;50.364;8.944;2023-07-31T12:52:23;22.20;1.00
29353;DHT22;16344;50.364;8.944;2023-07-31T12:54:49;22.20;1.00
29353;DHT22;16344;50.364;8.944;2023-07-31T12:57:14;22.30;1.00
29353;DHT22;16344;50.364;8.944;2023-07-31T12:59:40;22.40;1.00
29353;DHT22;16344;50.364;8.944;2023-07-31T13:02:05;22.50;1.00
29353;DHT22;16344;50.364;8.944;2023-07-31T13:04:31;22.50;1.00
29353;DHT22;16344;50.364;8.944;2023-07-31T13:06:56;22.50;1.00
29353;DHT22;16344;50.364;8.944;2023-07-31T13:09:22;22.50;1.00
29353;DHT22;16344;50.364;8.944;2023-07-31T13:11:47;22.60;1.00
29353;DHT22;16344;50.364;8.944;2023-07-31T13:14:13;22.60;1.00
29353;DHT22;16344;50.364;8.944;2023-07-31T13:16:38;22.80;1.00
29353;DHT22;16344;50.364;8.944;2023-07-31T13:19:04;22.80;1.00
29353;DHT22;16344;50.364;8.944;2023-07-31T13:21:29;22.60;1.00
29353;DHT22;16344;50.364;8.944;2023-07-31T13:23:55;22.50;1.00
29353;DHT22;16344;50.364;8.944;2023-07-31T13:26:23;22.50;1.00
29353;DHT22;16344;50.364;8.944;2023-07-31T13:28:48;22.30;1.00
29353;DHT22;16344;50.364;8.944;2023-07-31T13:31:14;22.30;1.00
29353;DHT22;16344;50.364;8.944;2023-07-31T13:33:39;22.20;1.00
29353;DHT22;16344;50.364;8.944;2023-07-31T13:36:05;22.20;1.00
29353;DHT22;16344;50.364;8.944;2023-07-31T13:38:31;22.10;1.00
29353;DHT22;16344;50.364;8.944;2023-07-31T13:40:56;22.10;1.00
29353;DHT22;16344;50.364;8.944;2023-07-31T13:43:22;22.20;1.00
29353;DHT22;16344;50.364;8.944;2023-07-31T13:45:47;22.10;1.00
29353;DHT22;16344;50.364;8.944;2023-07-31T13:48:13;22.10;1.00
29353;DHT22;16344;50.364;8.944;2023-07-31T13:50:38;22.10;1.00
29353;DHT22;16344;50.364;8.944;2023-07-31T13:53:04;22.10;1.00
29353;DHT22;16344;50.364;8.944;2023-07-31T13:55:29;22.20;1.00
29353;DHT22;16344;50.364;8.944;2023-07-31T13:57:55;22.30;1.00
29353;DHT22;16344;50.364;8.944;2023-07-31T14:00:21;22.30;1.00
29353;DHT22;16344;50.364;8.944;2023-07-31T14:02:46;22.40;1.00
29353;DHT22;16344;50.364;8.944;2023-07-31T14:05:12;22.50;1.00
29353;DHT22;16344;50.364;8.944;2023-07-31T14:07:37;22.60;1.00
29353;DHT22;16344;50.364;8.944;2023-07-31T14:10:03;22.60;1.00
29353;DHT22;16344;50.364;8.944;2023-07-31T14:12:29;22.60;1.00
29353;DHT22;16344;50.364;8.944;2023-07-31T14:14:56;22.60;1.00
29353;DHT22;16344;50.364;8.944;2023-07-31T14:17:21;22.60;1.00
29353;DHT22;16344;50.364;8.944;2023-07-31T14:19:47;22.50;1.00
29353;DHT22;16344;50.364;8.944;2023-07-31T14:22:12;22.50;1.00
29353;DHT22;16344;50.364;8.944;2023-07-31T14:24:38;22.50;1.00
29353;DHT22;16344;50.364;8.944;2023-07-31T14:27:04;22.30;1.00
29353;DHT22;16344;50.364;8.944;2023-07-31T14:29:30;22.30;1.00
29353;DHT22;16344;50.364;8.944;2023-07-31T14:31:55;22.20;1.00
29353;DHT22;16344;50.364;8.944;2023-07-31T14:34:21;22.20;1.00
29353;DHT22;16344;50.364;8.944;2023-07-31T14:36:46;22.20;1.00
29353;DHT22;16344;50.364;8.944;2023-07-31T14:39:12;22.10;1.00
29353;DHT22;16344;50.364;8.944;2023-07-31T14:41:37;22.10;1.00
29353;DHT22;16344;50.364;8.944;2023-07-31T14:44:03;22.20;1.00
29353;DHT22;16344;50.364;8.944;2023-07-31T14:46:28;22.20;1.00
29353;DHT22;16344;50.364;8.944;2023-07-31T14:48:54;22.30;1.00
29353;DHT22;16344;50.364;8.944;2023-07-31T14:51:19;22.40;1.00
29353;DHT22;16344;50.364;8.944;2023-07-31T14:53:46;22.60;1.00
29353;DHT22;16344;50.364;8.944;2023-07-31T14:56:12;22.50;1.00
29353;DHT22;16344;50.364;8.944;2023-07-31T14:58:38;22.50;1.00
29353;DHT22;16344;50.364;8.944;2023-07-31T15:01:03;22.40;1.00
29353;DHT22;16344;50.364;8.944;2023-07-31T15:03:29;22.50;1.00
29353;DHT22;16344;50.364;8.944;2023-07-31T15:05:54;22.40;1.00
29353;DHT22;16344;50.364;8.944;2023-07-31T15:08:20;22.50;1.00
29353;DHT22;16344;50.364;8.944;2023-07-31T15:10:45;22.50;1.00
29353;DHT22;16344;50.364;8.944;2023-07-31T15:13:12;22.60;1.00
29353;DHT22;16344;50.364;8.944;2023-07-31T15:15:37;22.60;1.00
29353;DHT22;16344;50.364;8.944;2023-07-31T15:18:03;22.60;1.00
29353;DHT22;16344;50.364;8.944;2023-07-31T15:20:28;22.60;1.00
29353;DHT22;16344;50.364;8.944;2023-07-31T15:22:55;22.50;1.00
29353;DHT22;16344;50.364;8.944;2023-07-31T15:25:21;22.40;1.00
29353;DHT22;16344;50.364;8.944;2023-07-31T15:27:46;22.40;1.00
29353;DHT22;16344;50.364;8.944;2023-07-31T15:30:12;22.40;1.00
29353;DHT22;16344;50.364;8.944;2023-07-31T15:32:38;22.40;1.00
29353;DHT22;16344;50.364;8.944;2023-07-31T15:35:05;22.40;1.00
29353;DHT22;16344;50.364;8.944;2023-07-31T15:37:30;22.50;1.00
29353;DHT22;16344;50.364;8.944;2023-07-31T15:39:56;22.40;1.00
29353;DHT22;16344;50.364;8.944;2023-07-31T15:42:21;22.50;1.00
29353;DHT22;16344;50.364;8.944;2023-07-31T15:44:47;22.40;1.00
29353;DHT22;16344;50.364;8.944;2023-07-31T15:47:12;22.20;1.00
29353;DHT22;16344;50.364;8.944;2023-07-31T15:49:38;22.20;1.00